Germantown, Wisconsin
Current Conditions -  °F | °C
As of 6:15 AM on Saturday 25 Oct 2014 (Local Time) from KMWC Reporting Station
Haze Haze  
Wind Chill: 54°   Ceiling: Unl
Heat Index: 54°   Visibility: 5mi
Dew Point: 52°   Wind: 7mph
Humidity: 94%   Direction: 270°W
Pressure: 29.87"   Gusts: NA
Location:  43.22°N, 88.12°W
Report Text: KMWC 251115Z AUTO 27006KT 5SM BR CLR 12/11 A2987 RMK AO2
Loading
Personal Weather Stations






























Interactive Weather Map
Tropical Storm Tracking
New forecast layout! Learn more

10-Day Weather Forecast

Advertisements
Track Severe Weather on mobile